sensor_id;sensor_type;location;lat;lon;timestamp;P1;durP1;ratioP1;P2;durP2;ratioP2
86144;SDS011;76801;42.716;23.178;2024-02-28T00:01:15;12.27;;;7.50;;
86144;SDS011;76801;42.716;23.178;2024-02-28T00:03:41;12.68;;;7.25;;
86144;SDS011;76801;42.716;23.178;2024-02-28T00:06:07;12.65;;;7.25;;
86144;SDS011;76801;42.716;23.178;2024-02-28T00:08:32;13.25;;;7.30;;
86144;SDS011;76801;42.716;23.178;2024-02-28T00:10:57;14.27;;;7.10;;
86144;SDS011;76801;42.716;23.178;2024-02-28T00:13:23;11.02;;;6.22;;
86144;SDS011;76801;42.716;23.178;2024-02-28T00:15:49;12.82;;;8.75;;
86144;SDS011;76801;42.716;23.178;2024-02-28T00:18:15;10.70;;;6.97;;
86144;SDS011;76801;42.716;23.178;2024-02-28T00:20:41;10.90;;;6.90;;
86144;SDS011;76801;42.716;23.178;2024-02-28T00:23:06;9.15;;;5.07;;
86144;SDS011;76801;42.716;23.178;2024-02-28T00:25:31;15.48;;;7.38;;
86144;SDS011;76801;42.716;23.178;2024-02-28T00:27:57;12.50;;;7.53;;
86144;SDS011;76801;42.716;23.178;2024-02-28T00:30:22;10.32;;;6.40;;
86144;SDS011;76801;42.716;23.178;2024-02-28T00:32:47;9.60;;;6.85;;
86144;SDS011;76801;42.716;23.178;2024-02-28T00:35:13;12.55;;;7.70;;
86144;SDS011;76801;42.716;23.178;2024-02-28T00:37:38;11.98;;;7.28;;
86144;SDS011;76801;42.716;23.178;2024-02-28T00:40:04;10.23;;;5.95;;
86144;SDS011;76801;42.716;23.178;2024-02-28T00:42:29;13.82;;;8.20;;
86144;SDS011;76801;42.716;23.178;2024-02-28T00:44:55;13.63;;;7.22;;
86144;SDS011;76801;42.716;23.178;2024-02-28T00:47:20;13.75;;;7.90;;
86144;SDS011;76801;42.716;23.178;2024-02-28T00:49:45;17.08;;;7.50;;
86144;SDS011;76801;42.716;23.178;2024-02-28T00:52:11;12.30;;;8.18;;
86144;SDS011;76801;42.716;23.178;2024-02-28T00:54:36;12.32;;;8.45;;
86144;SDS011;76801;42.716;23.178;2024-02-28T00:57:02;12.43;;;7.70;;
86144;SDS011;76801;42.716;23.178;2024-02-28T00:59:27;13.57;;;7.07;;
86144;SDS011;76801;42.716;23.178;2024-02-28T01:01:53;16.35;;;7.65;;
86144;SDS011;76801;42.716;23.178;2024-02-28T01:04:18;13.52;;;7.22;;
86144;SDS011;76801;42.716;23.178;2024-02-28T01:06:44;11.98;;;6.90;;
86144;SDS011;76801;42.716;23.178;2024-02-28T01:09:12;11.27;;;7.13;;
86144;SDS011;76801;42.716;23.178;2024-02-28T02:02:04;15.55;;;7.78;;
86144;SDS011;76801;42.716;23.178;2024-02-28T02:04:30;12.75;;;7.65;;
86144;SDS011;76801;42.716;23.178;2024-02-28T02:06:56;14.18;;;8.88;;
86144;SDS011;76801;42.716;23.178;2024-02-28T02:09:23;14.05;;;6.97;;
86144;SDS011;76801;42.716;23.178;2024-02-28T02:11:49;13.55;;;8.77;;
86144;SDS011;76801;42.716;23.178;2024-02-28T02:14:14;14.20;;;8.55;;
86144;SDS011;76801;42.716;23.178;2024-02-28T02:16:39;16.20;;;8.55;;
86144;SDS011;76801;42.716;23.178;2024-02-28T02:19:05;12.60;;;7.30;;
86144;SDS011;76801;42.716;23.178;2024-02-28T02:21:52;17.17;;;8.90;;
86144;SDS011;76801;42.716;23.178;2024-02-28T02:24:22;13.70;;;8.65;;
86144;SDS011;76801;42.716;23.178;2024-02-28T02:26:47;14.50;;;7.20;;
86144;SDS011;76801;42.716;23.178;2024-02-28T02:29:15;15.32;;;8.73;;
86144;SDS011;76801;42.716;23.178;2024-02-28T02:31:40;11.35;;;6.82;;
86144;SDS011;76801;42.716;23.178;2024-02-28T02:34:06;17.92;;;6.65;;
86144;SDS011;76801;42.716;23.178;2024-02-28T02:36:31;14.13;;;8.07;;
86144;SDS011;76801;42.716;23.178;2024-02-28T02:38:56;16.02;;;9.25;;
86144;SDS011;76801;42.716;23.178;2024-02-28T02:41:22;16.70;;;7.90;;
86144;SDS011;76801;42.716;23.178;2024-02-28T02:43:48;16.50;;;8.00;;
86144;SDS011;76801;42.716;23.178;2024-02-28T02:46:13;14.57;;;8.07;;
86144;SDS011;76801;42.716;23.178;2024-02-28T02:48:38;17.00;;;8.68;;
86144;SDS011;76801;42.716;23.178;2024-02-28T02:51:04;13.88;;;9.23;;
86144;SDS011;76801;42.716;23.178;2024-02-28T02:53:29;16.50;;;9.52;;
86144;SDS011;76801;42.716;23.178;2024-02-28T02:55:54;11.93;;;7.95;;
86144;SDS011;76801;42.716;23.178;2024-02-28T02:58:20;15.38;;;8.80;;
86144;SDS011;76801;42.716;23.178;2024-02-28T03:00:45;15.38;;;8.13;;
86144;SDS011;76801;42.716;23.178;2024-02-28T03:03:10;18.88;;;12.35;;
86144;SDS011;76801;42.716;23.178;2024-02-28T03:05:36;18.58;;;11.90;;
86144;SDS011;76801;42.716;23.178;2024-02-28T03:08:01;16.08;;;10.15;;
86144;SDS011;76801;42.716;23.178;2024-02-28T03:10:27;16.58;;;11.00;;
86144;SDS011;76801;42.716;23.178;2024-02-28T03:12:53;16.95;;;8.77;;
86144;SDS011;76801;42.716;23.178;2024-02-28T03:15:19;11.73;;;7.80;;
86144;SDS011;76801;42.716;23.178;2024-02-28T03:17:44;14.48;;;7.80;;
86144;SDS011;76801;42.716;23.178;2024-02-28T03:20:10;13.35;;;8.27;;
86144;SDS011;76801;42.716;23.178;2024-02-28T03:22:38;16.38;;;9.05;;
86144;SDS011;76801;42.716;23.178;2024-02-28T03:25:04;18.15;;;8.18;;
86144;SDS011;76801;42.716;23.178;2024-02-28T03:27:29;14.15;;;8.20;;
86144;SDS011;76801;42.716;23.178;2024-02-28T03:29:55;16.58;;;10.27;;
86144;SDS011;76801;42.716;23.178;2024-02-28T03:32:20;12.95;;;7.80;;
86144;SDS011;76801;42.716;23.178;2024-02-28T03:34:45;16.10;;;8.35;;
86144;SDS011;76801;42.716;23.178;2024-02-28T03:37:11;17.98;;;7.18;;
86144;SDS011;76801;42.716;23.178;2024-02-28T03:39:36;14.23;;;8.27;;
86144;SDS011;76801;42.716;23.178;2024-02-28T03:42:02;13.40;;;7.00;;
86144;SDS011;76801;42.716;23.178;2024-02-28T03:44:27;18.30;;;9.38;;
86144;SDS011;76801;42.716;23.178;2024-02-28T03:46:52;15.70;;;9.27;;
86144;SDS011;76801;42.716;23.178;2024-02-28T03:49:18;17.10;;;8.15;;
86144;SDS011;76801;42.716;23.178;2024-02-28T03:51:43;16.50;;;9.40;;
86144;SDS011;76801;42.716;23.178;2024-02-28T03:54:08;21.35;;;10.20;;
86144;SDS011;76801;42.716;23.178;2024-02-28T03:56:34;20.63;;;9.10;;
86144;SDS011;76801;42.716;23.178;2024-02-28T03:59:02;15.73;;;8.95;;
86144;SDS011;76801;42.716;23.178;2024-02-28T04:01:28;14.32;;;9.23;;
86144;SDS011;76801;42.716;23.178;2024-02-28T04:03:54;20.10;;;10.65;;
86144;SDS011;76801;42.716;23.178;2024-02-28T04:06:19;18.17;;;9.88;;
86144;SDS011;76801;42.716;23.178;2024-02-28T04:08:45;18.55;;;10.57;;
86144;SDS011;76801;42.716;23.178;2024-02-28T04:11:10;15.70;;;8.10;;
86144;SDS011;76801;42.716;23.178;2024-02-28T04:13:36;16.48;;;9.00;;
86144;SDS011;76801;42.716;23.178;2024-02-28T04:16:01;13.52;;;9.13;;
86144;SDS011;76801;42.716;23.178;2024-02-28T04:18:28;17.13;;;7.60;;
86144;SDS011;76801;42.716;23.178;2024-02-28T04:20:54;15.73;;;9.15;;
86144;SDS011;76801;42.716;23.178;2024-02-28T04:23:20;19.33;;;9.18;;
86144;SDS011;76801;42.716;23.178;2024-02-28T04:25:45;18.73;;;10.07;;
86144;SDS011;76801;42.716;23.178;2024-02-28T04:28:10;14.30;;;8.65;;
86144;SDS011;76801;42.716;23.178;2024-02-28T04:30:36;16.83;;;9.27;;
86144;SDS011;76801;42.716;23.178;2024-02-28T04:33:01;20.13;;;10.30;;
86144;SDS011;76801;42.716;23.178;2024-02-28T04:35:26;17.17;;;10.48;;
86144;SDS011;76801;42.716;23.178;2024-02-28T04:37:52;16.63;;;10.30;;
86144;SDS011;76801;42.716;23.178;2024-02-28T04:40:17;18.80;;;9.20;;
86144;SDS011;76801;42.716;23.178;2024-02-28T04:42:42;18.02;;;10.25;;
86144;SDS011;76801;42.716;23.178;2024-02-28T04:45:08;15.13;;;9.60;;
86144;SDS011;76801;42.716;23.178;2024-02-28T04:47:34;17.35;;;8.90;;
86144;SDS011;76801;42.716;23.178;2024-02-28T04:50:01;15.38;;;9.30;;
86144;SDS011;76801;42.716;23.178;2024-02-28T04:52:26;16.10;;;10.00;;
86144;SDS011;76801;42.716;23.178;2024-02-28T04:54:52;19.70;;;9.45;;
86144;SDS011;76801;42.716;23.178;2024-02-28T04:57:18;15.88;;;8.75;;
86144;SDS011;76801;42.716;23.178;2024-02-28T04:59:44;14.25;;;7.25;;
86144;SDS011;76801;42.716;23.178;2024-02-28T05:02:09;18.58;;;9.65;;
86144;SDS011;76801;42.716;23.178;2024-02-28T05:04:35;19.27;;;9.30;;
86144;SDS011;76801;42.716;23.178;2024-02-28T05:07:00;20.67;;;10.73;;
86144;SDS011;76801;42.716;23.178;2024-02-28T05:09:26;18.80;;;9.07;;
86144;SDS011;76801;42.716;23.178;2024-02-28T05:11:51;15.13;;;9.73;;
86144;SDS011;76801;42.716;23.178;2024-02-28T05:14:16;26.27;;;13.57;;
86144;SDS011;76801;42.716;23.178;2024-02-28T05:16:42;31.23;;;14.50;;
86144;SDS011;76801;42.716;23.178;2024-02-28T05:19:07;32.08;;;15.63;;
86144;SDS011;76801;42.716;23.178;2024-02-28T05:21:39;24.55;;;12.88;;
86144;SDS011;76801;42.716;23.178;2024-02-28T05:24:05;22.08;;;12.05;;
86144;SDS011;76801;42.716;23.178;2024-02-28T05:26:31;18.08;;;11.13;;
86144;SDS011;76801;42.716;23.178;2024-02-28T05:28:58;15.40;;;9.73;;
86144;SDS011;76801;42.716;23.178;2024-02-28T05:31:24;17.65;;;10.23;;
86144;SDS011;76801;42.716;23.178;2024-02-28T05:33:51;19.10;;;10.13;;
86144;SDS011;76801;42.716;23.178;2024-02-28T05:36:17;19.10;;;11.38;;
86144;SDS011;76801;42.716;23.178;2024-02-28T05:38:43;26.00;;;12.43;;
86144;SDS011;76801;42.716;23.178;2024-02-28T05:41:09;19.40;;;11.98;;
86144;SDS011;76801;42.716;23.178;2024-02-28T05:43:36;22.50;;;10.43;;
86144;SDS011;76801;42.716;23.178;2024-02-28T05:46:02;18.15;;;9.55;;
86144;SDS011;76801;42.716;23.178;2024-02-28T05:48:27;19.55;;;10.43;;
86144;SDS011;76801;42.716;23.178;2024-02-28T05:50:53;21.08;;;10.52;;
86144;SDS011;76801;42.716;23.178;2024-02-28T05:53:18;17.80;;;10.77;;
86144;SDS011;76801;42.716;23.178;2024-02-28T05:55:44;22.85;;;11.68;;
86144;SDS011;76801;42.716;23.178;2024-02-28T05:58:10;22.95;;;12.68;;
86144;SDS011;76801;42.716;23.178;2024-02-28T06:00:35;24.10;;;11.68;;
86144;SDS011;76801;42.716;23.178;2024-02-28T06:03:00;22.25;;;12.27;;
86144;SDS011;76801;42.716;23.178;2024-02-28T06:05:26;20.27;;;10.80;;
86144;SDS011;76801;42.716;23.178;2024-02-28T06:07:51;20.15;;;11.20;;
86144;SDS011;76801;42.716;23.178;2024-02-28T06:10:17;24.98;;;11.60;;
86144;SDS011;76801;42.716;23.178;2024-02-28T06:12:42;26.90;;;12.02;;
86144;SDS011;76801;42.716;23.178;2024-02-28T06:15:07;25.63;;;11.20;;
86144;SDS011;76801;42.716;23.178;2024-02-28T06:17:33;20.55;;;12.05;;
86144;SDS011;76801;42.716;23.178;2024-02-28T06:19:58;23.20;;;13.10;;
86144;SDS011;76801;42.716;23.178;2024-02-28T06:22:23;25.95;;;13.45;;
86144;SDS011;76801;42.716;23.178;2024-02-28T06:24:49;21.50;;;12.30;;
86144;SDS011;76801;42.716;23.178;2024-02-28T06:27:15;21.13;;;11.88;;
86144;SDS011;76801;42.716;23.178;2024-02-28T06:29:41;22.17;;;12.55;;
86144;SDS011;76801;42.716;23.178;2024-02-28T06:32:06;20.65;;;12.18;;
86144;SDS011;76801;42.716;23.178;2024-02-28T06:34:32;22.38;;;12.02;;
86144;SDS011;76801;42.716;23.178;2024-02-28T06:36:57;21.92;;;13.07;;
86144;SDS011;76801;42.716;23.178;2024-02-28T06:39:22;18.63;;;12.82;;
86144;SDS011;76801;42.716;23.178;2024-02-28T06:41:48;22.73;;;13.43;;
86144;SDS011;76801;42.716;23.178;2024-02-28T06:44:18;23.70;;;11.85;;
86144;SDS011;76801;42.716;23.178;2024-02-28T06:46:44;20.90;;;12.43;;
86144;SDS011;76801;42.716;23.178;2024-02-28T06:49:09;16.38;;;10.93;;
86144;SDS011;76801;42.716;23.178;2024-02-28T06:51:34;20.48;;;12.38;;
86144;SDS011;76801;42.716;23.178;2024-02-28T06:54:00;20.25;;;13.93;;
86144;SDS011;76801;42.716;23.178;2024-02-28T06:56:25;22.45;;;13.50;;
86144;SDS011;76801;42.716;23.178;2024-02-28T06:58:50;24.15;;;13.07;;
86144;SDS011;76801;42.716;23.178;2024-02-28T07:01:17;19.90;;;13.05;;
86144;SDS011;76801;42.716;23.178;2024-02-28T07:03:42;21.52;;;13.18;;
86144;SDS011;76801;42.716;23.178;2024-02-28T07:06:08;20.95;;;14.10;;
86144;SDS011;76801;42.716;23.178;2024-02-28T07:08:33;20.52;;;12.70;;
86144;SDS011;76801;42.716;23.178;2024-02-28T07:18:00;19.10;;;14.18;;
86144;SDS011;76801;42.716;23.178;2024-02-28T07:20:28;19.70;;;12.85;;
86144;SDS011;76801;42.716;23.178;2024-02-28T07:22:54;16.98;;;13.80;;
86144;SDS011;76801;42.716;23.178;2024-02-28T07:25:19;20.63;;;13.68;;
86144;SDS011;76801;42.716;23.178;2024-02-28T07:27:44;18.83;;;13.45;;
86144;SDS011;76801;42.716;23.178;2024-02-28T07:30:10;19.40;;;12.40;;
86144;SDS011;76801;42.716;23.178;2024-02-28T07:32:35;23.67;;;13.43;;
86144;SDS011;76801;42.716;23.178;2024-02-28T07:35:02;21.75;;;14.23;;
86144;SDS011;76801;42.716;23.178;2024-02-28T07:37:27;19.48;;;12.48;;
86144;SDS011;76801;42.716;23.178;2024-02-28T07:39:53;19.52;;;12.68;;
86144;SDS011;76801;42.716;23.178;2024-02-28T07:42:18;26.60;;;15.95;;
86144;SDS011;76801;42.716;23.178;2024-02-28T07:44:43;21.55;;;14.57;;
86144;SDS011;76801;42.716;23.178;2024-02-28T07:47:09;20.08;;;13.45;;
86144;SDS011;76801;42.716;23.178;2024-02-28T07:49:34;22.38;;;14.13;;
86144;SDS011;76801;42.716;23.178;2024-02-28T07:51:59;21.65;;;13.57;;
86144;SDS011;76801;42.716;23.178;2024-02-28T07:54:25;19.13;;;14.07;;
86144;SDS011;76801;42.716;23.178;2024-02-28T07:56:52;20.73;;;13.80;;
86144;SDS011;76801;42.716;23.178;2024-02-28T07:59:17;22.50;;;14.95;;
86144;SDS011;76801;42.716;23.178;2024-02-28T08:01:43;19.48;;;14.80;;
86144;SDS011;76801;42.716;23.178;2024-02-28T08:04:09;23.48;;;15.80;;
86144;SDS011;76801;42.716;23.178;2024-02-28T08:06:35;21.98;;;15.27;;
86144;SDS011;76801;42.716;23.178;2024-02-28T08:09:00;22.98;;;16.02;;
86144;SDS011;76801;42.716;23.178;2024-02-28T08:11:26;25.42;;;16.00;;
86144;SDS011;76801;42.716;23.178;2024-02-28T08:13:51;21.67;;;15.38;;
86144;SDS011;76801;42.716;23.178;2024-02-28T08:16:17;24.02;;;13.27;;
86144;SDS011;76801;42.716;23.178;2024-02-28T08:18:42;22.92;;;15.35;;
86144;SDS011;76801;42.716;23.178;2024-02-28T08:21:08;26.73;;;17.15;;
86144;SDS011;76801;42.716;23.178;2024-02-28T08:23:34;25.92;;;16.65;;
86144;SDS011;76801;42.716;23.178;2024-02-28T08:25:59;25.55;;;16.05;;
86144;SDS011;76801;42.716;23.178;2024-02-28T08:28:24;24.48;;;16.33;;
86144;SDS011;76801;42.716;23.178;2024-02-28T08:30:50;25.30;;;14.38;;
86144;SDS011;76801;42.716;23.178;2024-02-28T08:33:16;23.25;;;17.17;;
86144;SDS011;76801;42.716;23.178;2024-02-28T08:35:41;23.52;;;13.55;;
86144;SDS011;76801;42.716;23.178;2024-02-28T08:38:08;27.10;;;17.17;;
86144;SDS011;76801;42.716;23.178;2024-02-28T08:40:33;27.35;;;14.57;;
86144;SDS011;76801;42.716;23.178;2024-02-28T08:42:58;29.17;;;17.70;;
86144;SDS011;76801;42.716;23.178;2024-02-28T08:45:24;29.70;;;18.83;;
86144;SDS011;76801;42.716;23.178;2024-02-28T08:47:49;33.30;;;17.02;;
86144;SDS011;76801;42.716;23.178;2024-02-28T08:50:14;30.45;;;20.35;;
86144;SDS011;76801;42.716;23.178;2024-02-28T08:52:40;29.38;;;18.48;;
86144;SDS011;76801;42.716;23.178;2024-02-28T08:55:05;26.73;;;16.10;;
86144;SDS011;76801;42.716;23.178;2024-02-28T08:57:31;29.60;;;18.15;;
86144;SDS011;76801;42.716;23.178;2024-02-28T08:59:56;26.48;;;16.05;;
86144;SDS011;76801;42.716;23.178;2024-02-28T09:02:22;34.15;;;18.40;;
86144;SDS011;76801;42.716;23.178;2024-02-28T09:04:47;29.00;;;18.77;;
86144;SDS011;76801;42.716;23.178;2024-02-28T09:07:17;24.33;;;18.00;;
86144;SDS011;76801;42.716;23.178;2024-02-28T09:09:44;24.73;;;17.48;;
86144;SDS011;76801;42.716;23.178;2024-02-28T09:12:10;28.50;;;15.95;;
86144;SDS011;76801;42.716;23.178;2024-02-28T09:14:36;27.95;;;16.27;;
86144;SDS011;76801;42.716;23.178;2024-02-28T09:17:01;28.45;;;17.23;;
86144;SDS011;76801;42.716;23.178;2024-02-28T09:19:29;32.92;;;20.48;;
86144;SDS011;76801;42.716;23.178;2024-02-28T09:21:55;39.75;;;23.55;;
86144;SDS011;76801;42.716;23.178;2024-02-28T09:24:20;31.38;;;20.20;;
86144;SDS011;76801;42.716;23.178;2024-02-28T09:26:46;32.80;;;19.17;;
86144;SDS011;76801;42.716;23.178;2024-02-28T09:29:11;28.42;;;18.40;;
86144;SDS011;76801;42.716;23.178;2024-02-28T09:31:36;33.83;;;18.00;;
86144;SDS011;76801;42.716;23.178;2024-02-28T09:34:02;32.95;;;19.30;;
86144;SDS011;76801;42.716;23.178;2024-02-28T09:36:32;33.65;;;20.08;;
86144;SDS011;76801;42.716;23.178;2024-02-28T09:38:58;30.48;;;17.60;;
86144;SDS011;76801;42.716;23.178;2024-02-28T09:41:23;29.98;;;18.85;;
86144;SDS011;76801;42.716;23.178;2024-02-28T09:43:51;34.65;;;19.65;;
86144;SDS011;76801;42.716;23.178;2024-02-28T09:46:17;31.13;;;18.50;;
86144;SDS011;76801;42.716;23.178;2024-02-28T09:48:42;30.85;;;17.50;;
86144;SDS011;76801;42.716;23.178;2024-02-28T09:51:09;28.75;;;18.70;;
86144;SDS011;76801;42.716;23.178;2024-02-28T09:53:37;32.72;;;18.38;;
86144;SDS011;76801;42.716;23.178;2024-02-28T09:56:03;27.33;;;16.80;;
86144;SDS011;76801;42.716;23.178;2024-02-28T09:58:31;27.40;;;15.75;;
86144;SDS011;76801;42.716;23.178;2024-02-28T10:00:58;27.83;;;15.55;;
86144;SDS011;76801;42.716;23.178;2024-02-28T10:03:28;28.98;;;17.27;;
86144;SDS011;76801;42.716;23.178;2024-02-28T10:05:55;27.48;;;16.98;;
86144;SDS011;76801;42.716;23.178;2024-02-28T10:08:20;28.55;;;16.15;;
86144;SDS011;76801;42.716;23.178;2024-02-28T10:10:46;27.08;;;14.75;;
86144;SDS011;76801;42.716;23.178;2024-02-28T10:13:12;26.90;;;15.98;;
86144;SDS011;76801;42.716;23.178;2024-02-28T10:15:38;25.50;;;14.10;;
86144;SDS011;76801;42.716;23.178;2024-02-28T10:18:03;25.52;;;12.20;;
86144;SDS011;76801;42.716;23.178;2024-02-28T10:20:32;23.70;;;13.18;;
86144;SDS011;76801;42.716;23.178;2024-02-28T10:22:57;23.00;;;13.02;;
86144;SDS011;76801;42.716;23.178;2024-02-28T10:25:22;20.80;;;13.00;;
86144;SDS011;76801;42.716;23.178;2024-02-28T10:27:48;24.48;;;14.48;;
86144;SDS011;76801;42.716;23.178;2024-02-28T10:30:14;18.95;;;10.63;;
86144;SDS011;76801;42.716;23.178;2024-02-28T10:32:48;22.75;;;12.77;;
86144;SDS011;76801;42.716;23.178;2024-02-28T10:35:19;20.05;;;13.23;;
86144;SDS011;76801;42.716;23.178;2024-02-28T10:40:13;20.92;;;12.88;;
86144;SDS011;76801;42.716;23.178;2024-02-28T10:42:40;18.85;;;9.73;;
86144;SDS011;76801;42.716;23.178;2024-02-28T10:45:07;17.90;;;11.57;;
86144;SDS011;76801;42.716;23.178;2024-02-28T10:47:35;18.27;;;10.95;;
86144;SDS011;76801;42.716;23.178;2024-02-28T10:50:03;17.33;;;11.45;;
86144;SDS011;76801;42.716;23.178;2024-02-28T10:52:29;21.70;;;12.32;;
86144;SDS011;76801;42.716;23.178;2024-02-28T10:54:58;19.42;;;12.07;;
86144;SDS011;76801;42.716;23.178;2024-02-28T10:57:25;20.35;;;12.23;;
86144;SDS011;76801;42.716;23.178;2024-02-28T10:59:52;19.55;;;12.15;;
86144;SDS011;76801;42.716;23.178;2024-02-28T11:02:18;21.33;;;12.75;;
86144;SDS011;76801;42.716;23.178;2024-02-28T11:04:44;19.98;;;12.13;;
86144;SDS011;76801;42.716;23.178;2024-02-28T11:07:09;19.80;;;11.23;;
86144;SDS011;76801;42.716;23.178;2024-02-28T11:09:35;19.02;;;11.38;;
86144;SDS011;76801;42.716;23.178;2024-02-28T11:12:00;17.20;;;9.52;;
86144;SDS011;76801;42.716;23.178;2024-02-28T11:17:01;20.30;;;11.60;;
86144;SDS011;76801;42.716;23.178;2024-02-28T11:19:28;23.95;;;11.65;;
86144;SDS011;76801;42.716;23.178;2024-02-28T11:21:59;15.27;;;10.07;;
86144;SDS011;76801;42.716;23.178;2024-02-28T11:24:29;15.45;;;8.32;;
86144;SDS011;76801;42.716;23.178;2024-02-28T11:26:56;16.55;;;9.45;;
86144;SDS011;76801;42.716;23.178;2024-02-28T11:29:25;15.48;;;9.57;;
86144;SDS011;76801;42.716;23.178;2024-02-28T11:31:52;15.80;;;9.85;;
86144;SDS011;76801;42.716;23.178;2024-02-28T11:34:18;18.15;;;10.48;;
86144;SDS011;76801;42.716;23.178;2024-02-28T11:36:46;17.45;;;9.38;;
86144;SDS011;76801;42.716;23.178;2024-02-28T11:39:15;15.90;;;8.52;;
86144;SDS011;76801;42.716;23.178;2024-02-28T11:41:42;16.30;;;10.10;;
86144;SDS011;76801;42.716;23.178;2024-02-28T11:44:11;16.75;;;9.23;;
86144;SDS011;76801;42.716;23.178;2024-02-28T11:46:38;16.80;;;10.02;;
86144;SDS011;76801;42.716;23.178;2024-02-28T11:49:07;16.80;;;8.90;;
86144;SDS011;76801;42.716;23.178;2024-02-28T11:51:32;19.73;;;10.70;;
86144;SDS011;76801;42.716;23.178;2024-02-28T11:54:00;16.50;;;9.00;;
86144;SDS011;76801;42.716;23.178;2024-02-28T11:56:26;17.50;;;9.57;;
86144;SDS011;76801;42.716;23.178;2024-02-28T11:58:52;17.65;;;9.38;;
86144;SDS011;76801;42.716;23.178;2024-02-28T12:01:18;19.95;;;12.10;;
86144;SDS011;76801;42.716;23.178;2024-02-28T12:03:59;13.32;;;8.65;;
86144;SDS011;76801;42.716;23.178;2024-02-28T12:06:24;17.67;;;9.88;;
86144;SDS011;76801;42.716;23.178;2024-02-28T12:08:50;20.90;;;10.90;;
86144;SDS011;76801;42.716;23.178;2024-02-28T12:11:15;16.95;;;9.30;;
86144;SDS011;76801;42.716;23.178;2024-02-28T12:13:41;14.90;;;9.57;;
86144;SDS011;76801;42.716;23.178;2024-02-28T12:16:07;13.43;;;8.20;;
86144;SDS011;76801;42.716;23.178;2024-02-28T12:18:34;13.30;;;6.65;;
86144;SDS011;76801;42.716;23.178;2024-02-28T12:20:59;13.38;;;7.97;;
86144;SDS011;76801;42.716;23.178;2024-02-28T12:23:25;13.95;;;7.85;;
86144;SDS011;76801;42.716;23.178;2024-02-28T12:25:50;17.95;;;6.72;;
86144;SDS011;76801;42.716;23.178;2024-02-28T12:28:16;9.98;;;6.88;;
86144;SDS011;76801;42.716;23.178;2024-02-28T12:30:42;12.07;;;7.40;;
86144;SDS011;76801;42.716;23.178;2024-02-28T12:33:08;10.80;;;5.88;;
86144;SDS011;76801;42.716;23.178;2024-02-28T12:35:34;10.82;;;6.60;;
86144;SDS011;76801;42.716;23.178;2024-02-28T12:37:59;11.15;;;5.90;;
86144;SDS011;76801;42.716;23.178;2024-02-28T12:40:25;10.25;;;5.75;;
86144;SDS011;76801;42.716;23.178;2024-02-28T12:42:50;8.98;;;6.05;;
86144;SDS011;76801;42.716;23.178;2024-02-28T12:45:15;12.90;;;8.93;;
86144;SDS011;76801;42.716;23.178;2024-02-28T12:47:41;10.00;;;5.30;;
86144;SDS011;76801;42.716;23.178;2024-02-28T12:50:06;9.80;;;5.15;;
86144;SDS011;76801;42.716;23.178;2024-02-28T12:52:33;11.57;;;5.50;;
86144;SDS011;76801;42.716;23.178;2024-02-28T12:54:59;7.55;;;4.70;;
86144;SDS011;76801;42.716;23.178;2024-02-28T12:57:24;8.55;;;5.38;;
86144;SDS011;76801;42.716;23.178;2024-02-28T12:59:49;7.82;;;4.55;;
86144;SDS011;76801;42.716;23.178;2024-02-28T13:02:15;9.40;;;5.18;;
86144;SDS011;76801;42.716;23.178;2024-02-28T13:04:42;9.13;;;4.25;;
86144;SDS011;76801;42.716;23.178;2024-02-28T13:07:08;9.15;;;4.68;;
86144;SDS011;76801;42.716;23.178;2024-02-28T13:09:33;7.07;;;4.15;;
86144;SDS011;76801;42.716;23.178;2024-02-28T13:11:58;9.82;;;4.95;;
86144;SDS011;76801;42.716;23.178;2024-02-28T13:14:24;10.18;;;5.40;;
86144;SDS011;76801;42.716;23.178;2024-02-28T13:16:49;10.07;;;5.82;;
86144;SDS011;76801;42.716;23.178;2024-02-28T13:19:17;13.27;;;6.97;;
86144;SDS011;76801;42.716;23.178;2024-02-28T13:21:43;10.98;;;5.75;;
86144;SDS011;76801;42.716;23.178;2024-02-28T13:24:08;9.60;;;4.95;;
86144;SDS011;76801;42.716;23.178;2024-02-28T13:26:34;10.70;;;5.03;;
86144;SDS011;76801;42.716;23.178;2024-02-28T13:28:59;39.63;;;20.85;;
86144;SDS011;76801;42.716;23.178;2024-02-28T13:31:24;19.95;;;9.00;;
86144;SDS011;76801;42.716;23.178;2024-02-28T13:33:50;9.82;;;6.72;;
86144;SDS011;76801;42.716;23.178;2024-02-28T13:36:15;12.98;;;5.93;;
86144;SDS011;76801;42.716;23.178;2024-02-28T13:38:41;8.50;;;5.25;;
86144;SDS011;76801;42.716;23.178;2024-02-28T13:41:06;9.93;;;5.55;;
86144;SDS011;76801;42.716;23.178;2024-02-28T13:43:32;8.32;;;5.68;;
86144;SDS011;76801;42.716;23.178;2024-02-28T13:45:58;8.68;;;6.00;;
86144;SDS011;76801;42.716;23.178;2024-02-28T13:48:25;9.30;;;5.03;;
86144;SDS011;76801;42.716;23.178;2024-02-28T13:50:53;10.82;;;4.75;;
86144;SDS011;76801;42.716;23.178;2024-02-28T13:53:19;6.22;;;4.55;;
86144;SDS011;76801;42.716;23.178;2024-02-28T13:55:45;13.65;;;6.00;;
86144;SDS011;76801;42.716;23.178;2024-02-28T13:58:11;11.32;;;6.20;;
86144;SDS011;76801;42.716;23.178;2024-02-28T14:00:37;12.40;;;6.18;;
86144;SDS011;76801;42.716;23.178;2024-02-28T14:03:04;10.02;;;4.97;;
86144;SDS011;76801;42.716;23.178;2024-02-28T14:05:31;10.65;;;8.00;;
86144;SDS011;76801;42.716;23.178;2024-02-28T14:07:57;14.13;;;7.25;;
86144;SDS011;76801;42.716;23.178;2024-02-28T14:10:22;11.63;;;6.95;;
86144;SDS011;76801;42.716;23.178;2024-02-28T14:12:48;25.10;;;8.15;;
86144;SDS011;76801;42.716;23.178;2024-02-28T14:15:14;11.57;;;6.82;;
86144;SDS011;76801;42.716;23.178;2024-02-28T14:17:39;11.43;;;7.28;;
86144;SDS011;76801;42.716;23.178;2024-02-28T14:20:05;15.35;;;6.40;;
86144;SDS011;76801;42.716;23.178;2024-02-28T14:22:31;13.35;;;7.32;;
86144;SDS011;76801;42.716;23.178;2024-02-28T14:24:57;10.18;;;6.32;;
86144;SDS011;76801;42.716;23.178;2024-02-28T14:27:24;9.05;;;5.93;;
86144;SDS011;76801;42.716;23.178;2024-02-28T14:29:54;12.98;;;6.25;;
86144;SDS011;76801;42.716;23.178;2024-02-28T14:32:20;22.63;;;6.60;;
86144;SDS011;76801;42.716;23.178;2024-02-28T14:34:45;17.00;;;6.55;;
86144;SDS011;76801;42.716;23.178;2024-02-28T14:37:11;11.88;;;6.65;;
86144;SDS011;76801;42.716;23.178;2024-02-28T14:39:36;13.02;;;6.20;;
86144;SDS011;76801;42.716;23.178;2024-02-28T14:42:02;10.23;;;6.10;;
86144;SDS011;76801;42.716;23.178;2024-02-28T14:44:27;10.15;;;5.68;;
86144;SDS011;76801;42.716;23.178;2024-02-28T14:46:52;8.43;;;5.68;;
86144;SDS011;76801;42.716;23.178;2024-02-28T14:49:18;12.70;;;5.78;;
86144;SDS011;76801;42.716;23.178;2024-02-28T14:51:43;11.90;;;5.43;;
86144;SDS011;76801;42.716;23.178;2024-02-28T14:54:13;14.30;;;6.47;;
86144;SDS011;76801;42.716;23.178;2024-02-28T14:56:39;10.88;;;5.53;;
86144;SDS011;76801;42.716;23.178;2024-02-28T14:59:05;10.98;;;5.85;;
86144;SDS011;76801;42.716;23.178;2024-02-28T15:01:30;8.15;;;6.45;;
86144;SDS011;76801;42.716;23.178;2024-02-28T15:03:56;11.75;;;6.55;;
86144;SDS011;76801;42.716;23.178;2024-02-28T15:06:21;11.25;;;6.05;;
86144;SDS011;76801;42.716;23.178;2024-02-28T15:08:46;9.05;;;4.72;;
86144;SDS011;76801;42.716;23.178;2024-02-28T15:11:12;11.15;;;5.00;;